sensor_id;sensor_type;location;lat;lon;timestamp;temperature;humidity
70928;SHT31;58587;53.034;18.576;2024-02-26T00:01:02;3.15;92.56
70928;SHT31;58587;53.034;18.576;2024-02-26T00:03:28;3.09;92.34
70928;SHT31;58587;53.034;18.576;2024-02-26T00:05:53;3.05;92.32
70928;SHT31;58587;53.034;18.576;2024-02-26T00:08:18;3.00;92.12
70928;SHT31;58587;53.034;18.576;2024-02-26T00:10:44;2.97;92.27
70928;SHT31;58587;53.034;18.576;2024-02-26T00:13:09;2.98;92.52
70928;SHT31;58587;53.034;18.576;2024-02-26T00:15:34;2.98;92.53
70928;SHT31;58587;53.034;18.576;2024-02-26T00:18:00;2.94;92.03
70928;SHT31;58587;53.034;18.576;2024-02-26T00:20:26;2.90;91.94
70928;SHT31;58587;53.034;18.576;2024-02-26T00:22:51;2.87;91.97
70928;SHT31;58587;53.034;18.576;2024-02-26T00:25:17;2.87;92.20
70928;SHT31;58587;53.034;18.576;2024-02-26T00:27:42;2.84;91.84
70928;SHT31;58587;53.034;18.576;2024-02-26T00:30:09;2.79;91.80
70928;SHT31;58587;53.034;18.576;2024-02-26T00:32:35;2.76;92.00
70928;SHT31;58587;53.034;18.576;2024-02-26T00:35:00;2.74;92.24
70928;SHT31;58587;53.034;18.576;2024-02-26T00:37:26;2.77;92.66
70928;SHT31;58587;53.034;18.576;2024-02-26T00:39:51;2.73;92.53
70928;SHT31;58587;53.034;18.576;2024-02-26T00:42:18;2.72;92.33
70928;SHT31;58587;53.034;18.576;2024-02-26T00:44:43;2.67;92.63
70928;SHT31;58587;53.034;18.576;2024-02-26T00:47:08;2.65;92.93
70928;SHT31;58587;53.034;18.576;2024-02-26T00:49:34;2.70;92.83
70928;SHT31;58587;53.034;18.576;2024-02-26T00:51:59;2.72;93.13
70928;SHT31;58587;53.034;18.576;2024-02-26T00:54:24;2.70;93.21
70928;SHT31;58587;53.034;18.576;2024-02-26T00:56:50;2.64;93.47
70928;SHT31;58587;53.034;18.576;2024-02-26T00:59:15;2.63;93.54
70928;SHT31;58587;53.034;18.576;2024-02-26T01:01:40;2.67;93.55
70928;SHT31;58587;53.034;18.576;2024-02-26T01:04:06;2.67;93.14
70928;SHT31;58587;53.034;18.576;2024-02-26T01:06:31;2.67;92.86
70928;SHT31;58587;53.034;18.576;2024-02-26T01:08:56;2.70;93.03
70928;SHT31;58587;53.034;18.576;2024-02-26T01:11:22;2.64;93.13
70928;SHT31;58587;53.034;18.576;2024-02-26T01:13:47;2.63;93.20
70928;SHT31;58587;53.034;18.576;2024-02-26T01:16:12;2.57;93.25
70928;SHT31;58587;53.034;18.576;2024-02-26T01:18:38;2.54;93.25
70928;SHT31;58587;53.034;18.576;2024-02-26T01:21:03;2.56;93.22
70928;SHT31;58587;53.034;18.576;2024-02-26T01:23:32;2.52;92.58
70928;SHT31;58587;53.034;18.576;2024-02-26T01:25:57;2.44;92.49
70928;SHT31;58587;53.034;18.576;2024-02-26T01:28:22;2.46;92.27
70928;SHT31;58587;53.034;18.576;2024-02-26T01:30:48;2.43;92.57
70928;SHT31;58587;53.034;18.576;2024-02-26T01:33:13;2.43;92.52
70928;SHT31;58587;53.034;18.576;2024-02-26T01:35:38;2.42;92.74
70928;SHT31;58587;53.034;18.576;2024-02-26T01:38:04;2.36;92.42
70928;SHT31;58587;53.034;18.576;2024-02-26T01:40:31;2.30;92.47
70928;SHT31;58587;53.034;18.576;2024-02-26T01:42:56;2.25;92.50
70928;SHT31;58587;53.034;18.576;2024-02-26T01:45:21;2.19;92.37
70928;SHT31;58587;53.034;18.576;2024-02-26T01:47:52;2.15;92.24
70928;SHT31;58587;53.034;18.576;2024-02-26T01:50:18;2.12;92.14
70928;SHT31;58587;53.034;18.576;2024-02-26T01:52:46;2.12;92.25
70928;SHT31;58587;53.034;18.576;2024-02-26T01:55:13;2.13;92.08
70928;SHT31;58587;53.034;18.576;2024-02-26T01:57:40;2.08;91.88
70928;SHT31;58587;53.034;18.576;2024-02-26T02:00:07;2.06;92.43
70928;SHT31;58587;53.034;18.576;2024-02-26T02:02:33;2.05;92.39
70928;SHT31;58587;53.034;18.576;2024-02-26T02:04:58;2.03;92.44
70928;SHT31;58587;53.034;18.576;2024-02-26T02:07:24;2.02;92.50
70928;SHT31;58587;53.034;18.576;2024-02-26T02:09:50;2.02;92.48
70928;SHT31;58587;53.034;18.576;2024-02-26T02:12:15;2.05;92.86
70928;SHT31;58587;53.034;18.576;2024-02-26T02:14:41;2.01;92.79
70928;SHT31;58587;53.034;18.576;2024-02-26T02:17:07;1.98;92.50
70928;SHT31;58587;53.034;18.576;2024-02-26T02:19:32;1.94;92.16
70928;SHT31;58587;53.034;18.576;2024-02-26T02:21:57;1.88;92.48
70928;SHT31;58587;53.034;18.576;2024-02-26T02:24:23;1.85;92.27
70928;SHT31;58587;53.034;18.576;2024-02-26T02:26:48;1.83;92.34
70928;SHT31;58587;53.034;18.576;2024-02-26T02:29:14;1.79;92.12
70928;SHT31;58587;53.034;18.576;2024-02-26T02:31:40;1.77;92.19
70928;SHT31;58587;53.034;18.576;2024-02-26T02:34:05;1.75;92.42
70928;SHT31;58587;53.034;18.576;2024-02-26T02:36:31;1.74;92.41
70928;SHT31;58587;53.034;18.576;2024-02-26T02:38:56;1.74;92.56
70928;SHT31;58587;53.034;18.576;2024-02-26T02:41:21;1.68;92.87
70928;SHT31;58587;53.034;18.576;2024-02-26T02:43:47;1.69;93.13
70928;SHT31;58587;53.034;18.576;2024-02-26T02:46:12;1.62;92.55
70928;SHT31;58587;53.034;18.576;2024-02-26T02:48:38;1.59;92.45
70928;SHT31;58587;53.034;18.576;2024-02-26T02:51:04;1.58;92.63
70928;SHT31;58587;53.034;18.576;2024-02-26T02:53:30;1.58;92.67
70928;SHT31;58587;53.034;18.576;2024-02-26T02:55:55;1.54;92.38
70928;SHT31;58587;53.034;18.576;2024-02-26T02:58:20;1.52;92.52
70928;SHT31;58587;53.034;18.576;2024-02-26T03:00:46;1.51;92.76
70928;SHT31;58587;53.034;18.576;2024-02-26T03:03:11;1.48;92.47
70928;SHT31;58587;53.034;18.576;2024-02-26T03:05:36;1.46;92.65
70928;SHT31;58587;53.034;18.576;2024-02-26T03:08:02;1.41;92.72
70928;SHT31;58587;53.034;18.576;2024-02-26T03:10:27;1.37;93.23
70928;SHT31;58587;53.034;18.576;2024-02-26T03:12:53;1.34;93.38
70928;SHT31;58587;53.034;18.576;2024-02-26T03:15:19;1.37;93.27
70928;SHT31;58587;53.034;18.576;2024-02-26T03:17:44;1.37;93.10
70928;SHT31;58587;53.034;18.576;2024-02-26T03:20:10;1.31;92.74
70928;SHT31;58587;53.034;18.576;2024-02-26T03:22:35;1.23;92.48
70928;SHT31;58587;53.034;18.576;2024-02-26T03:25:00;1.23;92.47
70928;SHT31;58587;53.034;18.576;2024-02-26T03:27:26;1.23;92.82
70928;SHT31;58587;53.034;18.576;2024-02-26T03:29:51;1.24;92.82
70928;SHT31;58587;53.034;18.576;2024-02-26T03:32:17;1.20;92.80
70928;SHT31;58587;53.034;18.576;2024-02-26T03:34:43;1.24;92.79
70928;SHT31;58587;53.034;18.576;2024-02-26T03:37:08;1.19;92.78
70928;SHT31;58587;53.034;18.576;2024-02-26T03:39:36;1.17;92.91
70928;SHT31;58587;53.034;18.576;2024-02-26T03:42:01;1.16;92.84
70928;SHT31;58587;53.034;18.576;2024-02-26T03:44:27;1.12;92.95
70928;SHT31;58587;53.034;18.576;2024-02-26T03:46:52;1.08;93.03
70928;SHT31;58587;53.034;18.576;2024-02-26T03:49:18;1.07;92.62
70928;SHT31;58587;53.034;18.576;2024-02-26T03:51:43;1.03;92.53
70928;SHT31;58587;53.034;18.576;2024-02-26T03:54:08;0.96;92.41
70928;SHT31;58587;53.034;18.576;2024-02-26T03:56:34;0.97;92.49
70928;SHT31;58587;53.034;18.576;2024-02-26T03:58:59;1.01;92.40
70928;SHT31;58587;53.034;18.576;2024-02-26T04:01:27;0.96;92.14
70928;SHT31;58587;53.034;18.576;2024-02-26T04:03:52;0.94;92.40
70928;SHT31;58587;53.034;18.576;2024-02-26T04:06:18;0.89;92.29
70928;SHT31;58587;53.034;18.576;2024-02-26T04:08:44;0.89;92.20
70928;SHT31;58587;53.034;18.576;2024-02-26T04:11:10;0.86;92.10
70928;SHT31;58587;53.034;18.576;2024-02-26T04:13:36;0.83;91.92
70928;SHT31;58587;53.034;18.576;2024-02-26T04:16:04;0.85;92.19
70928;SHT31;58587;53.034;18.576;2024-02-26T04:18:29;0.83;92.16
70928;SHT31;58587;53.034;18.576;2024-02-26T04:20:54;0.83;92.09
70928;SHT31;58587;53.034;18.576;2024-02-26T04:23:20;0.80;92.16
70928;SHT31;58587;53.034;18.576;2024-02-26T04:25:45;0.77;92.64
70928;SHT31;58587;53.034;18.576;2024-02-26T04:28:11;0.80;92.66
70928;SHT31;58587;53.034;18.576;2024-02-26T04:30:37;0.76;92.61
70928;SHT31;58587;53.034;18.576;2024-02-26T04:33:03;0.75;92.89
70928;SHT31;58587;53.034;18.576;2024-02-26T04:35:28;0.76;93.02
70928;SHT31;58587;53.034;18.576;2024-02-26T04:37:54;0.72;92.73
70928;SHT31;58587;53.034;18.576;2024-02-26T04:40:19;0.72;92.85
70928;SHT31;58587;53.034;18.576;2024-02-26T04:42:45;0.70;93.13
70928;SHT31;58587;53.034;18.576;2024-02-26T04:45:10;0.73;92.75
70928;SHT31;58587;53.034;18.576;2024-02-26T04:47:35;0.75;93.01
70928;SHT31;58587;53.034;18.576;2024-02-26T04:50:01;0.70;92.87
70928;SHT31;58587;53.034;18.576;2024-02-26T04:52:26;0.73;93.08
70928;SHT31;58587;53.034;18.576;2024-02-26T04:54:51;0.72;92.96
70928;SHT31;58587;53.034;18.576;2024-02-26T04:57:17;0.72;93.05
70928;SHT31;58587;53.034;18.576;2024-02-26T04:59:44;0.73;93.07
70928;SHT31;58587;53.034;18.576;2024-02-26T05:02:11;0.73;92.93
70928;SHT31;58587;53.034;18.576;2024-02-26T05:04:36;0.69;92.80
70928;SHT31;58587;53.034;18.576;2024-02-26T05:07:02;0.66;92.95
70928;SHT31;58587;53.034;18.576;2024-02-26T05:09:27;0.72;92.86
70928;SHT31;58587;53.034;18.576;2024-02-26T05:11:52;0.72;93.01
70928;SHT31;58587;53.034;18.576;2024-02-26T05:14:18;0.73;92.77
70928;SHT31;58587;53.034;18.576;2024-02-26T05:16:43;0.72;92.90
70928;SHT31;58587;53.034;18.576;2024-02-26T05:19:08;0.70;92.93
70928;SHT31;58587;53.034;18.576;2024-02-26T05:21:34;0.69;92.87
70928;SHT31;58587;53.034;18.576;2024-02-26T05:23:59;0.68;92.94
70928;SHT31;58587;53.034;18.576;2024-02-26T05:26:25;0.69;93.06
70928;SHT31;58587;53.034;18.576;2024-02-26T05:28:50;0.68;92.71
70928;SHT31;58587;53.034;18.576;2024-02-26T05:31:16;0.69;92.80
70928;SHT31;58587;53.034;18.576;2024-02-26T05:33:42;0.68;92.76
70928;SHT31;58587;53.034;18.576;2024-02-26T05:36:07;0.68;93.07
70928;SHT31;58587;53.034;18.576;2024-02-26T05:38:33;0.69;92.88
70928;SHT31;58587;53.034;18.576;2024-02-26T05:40:59;0.62;92.91
70928;SHT31;58587;53.034;18.576;2024-02-26T05:43:27;0.68;92.97
70928;SHT31;58587;53.034;18.576;2024-02-26T05:45:53;0.66;93.12
70928;SHT31;58587;53.034;18.576;2024-02-26T05:48:19;0.65;93.02
70928;SHT31;58587;53.034;18.576;2024-02-26T05:50:47;0.65;93.28
70928;SHT31;58587;53.034;18.576;2024-02-26T05:53:13;0.69;93.30
70928;SHT31;58587;53.034;18.576;2024-02-26T05:55:38;0.68;93.40
70928;SHT31;58587;53.034;18.576;2024-02-26T05:58:03;0.69;93.24
70928;SHT31;58587;53.034;18.576;2024-02-26T06:00:29;0.66;93.19
70928;SHT31;58587;53.034;18.576;2024-02-26T06:02:54;0.69;93.20
70928;SHT31;58587;53.034;18.576;2024-02-26T06:05:20;0.72;93.31
70928;SHT31;58587;53.034;18.576;2024-02-26T06:07:45;0.77;93.37
70928;SHT31;58587;53.034;18.576;2024-02-26T06:10:10;0.80;93.57
70928;SHT31;58587;53.034;18.576;2024-02-26T06:12:36;0.83;93.70
70928;SHT31;58587;53.034;18.576;2024-02-26T06:15:02;0.89;93.89
70928;SHT31;58587;53.034;18.576;2024-02-26T06:17:27;0.92;93.82
70928;SHT31;58587;53.034;18.576;2024-02-26T06:19:53;0.92;93.66
70928;SHT31;58587;53.034;18.576;2024-02-26T06:22:19;1.00;93.73
70928;SHT31;58587;53.034;18.576;2024-02-26T06:24:44;1.01;93.52
70928;SHT31;58587;53.034;18.576;2024-02-26T06:27:10;1.07;93.61
70928;SHT31;58587;53.034;18.576;2024-02-26T06:29:35;1.10;93.62
70928;SHT31;58587;53.034;18.576;2024-02-26T06:32:00;1.19;93.66
70928;SHT31;58587;53.034;18.576;2024-02-26T06:34:26;1.22;93.53
70928;SHT31;58587;53.034;18.576;2024-02-26T06:36:51;1.30;93.54
70928;SHT31;58587;53.034;18.576;2024-02-26T06:39:16;1.36;93.58
70928;SHT31;58587;53.034;18.576;2024-02-26T06:41:43;1.41;93.61
70928;SHT31;58587;53.034;18.576;2024-02-26T06:44:08;1.50;93.64
70928;SHT31;58587;53.034;18.576;2024-02-26T06:46:33;1.54;93.64
70928;SHT31;58587;53.034;18.576;2024-02-26T06:48:59;1.62;93.58
70928;SHT31;58587;53.034;18.576;2024-02-26T06:51:24;1.75;93.64
70928;SHT31;58587;53.034;18.576;2024-02-26T06:53:49;1.83;93.67
70928;SHT31;58587;53.034;18.576;2024-02-26T06:56:15;1.89;93.68
70928;SHT31;58587;53.034;18.576;2024-02-26T06:58:40;1.99;94.01
70928;SHT31;58587;53.034;18.576;2024-02-26T07:01:06;2.12;94.24
70928;SHT31;58587;53.034;18.576;2024-02-26T07:03:33;2.23;94.15
70928;SHT31;58587;53.034;18.576;2024-02-26T07:05:58;2.33;94.32
70928;SHT31;58587;53.034;18.576;2024-02-26T07:08:24;2.44;94.63
70928;SHT31;58587;53.034;18.576;2024-02-26T07:10:49;2.54;94.59
70928;SHT31;58587;53.034;18.576;2024-02-26T07:13:14;2.67;94.69
70928;SHT31;58587;53.034;18.576;2024-02-26T07:15:40;2.77;94.81
70928;SHT31;58587;53.034;18.576;2024-02-26T07:18:05;2.87;94.83
70928;SHT31;58587;53.034;18.576;2024-02-26T07:20:30;2.95;94.96
70928;SHT31;58587;53.034;18.576;2024-02-26T07:22:56;3.05;94.73
70928;SHT31;58587;53.034;18.576;2024-02-26T07:25:22;3.17;94.83
70928;SHT31;58587;53.034;18.576;2024-02-26T07:27:47;3.24;94.67
70928;SHT31;58587;53.034;18.576;2024-02-26T07:30:13;3.32;94.27
70928;SHT31;58587;53.034;18.576;2024-02-26T07:32:38;3.42;94.54
70928;SHT31;58587;53.034;18.576;2024-02-26T07:35:04;3.54;94.54
70928;SHT31;58587;53.034;18.576;2024-02-26T07:37:30;3.68;94.41
70928;SHT31;58587;53.034;18.576;2024-02-26T07:39:55;3.78;94.18
70928;SHT31;58587;53.034;18.576;2024-02-26T07:42:21;3.89;94.01
70928;SHT31;58587;53.034;18.576;2024-02-26T07:44:46;3.96;93.81
70928;SHT31;58587;53.034;18.576;2024-02-26T07:47:12;4.09;93.83
70928;SHT31;58587;53.034;18.576;2024-02-26T07:49:37;4.21;93.77
70928;SHT31;58587;53.034;18.576;2024-02-26T07:52:03;4.36;93.60
70928;SHT31;58587;53.034;18.576;2024-02-26T07:54:28;4.48;93.10
70928;SHT31;58587;53.034;18.576;2024-02-26T07:56:53;4.60;93.00
70928;SHT31;58587;53.034;18.576;2024-02-26T07:59:19;4.68;92.77
70928;SHT31;58587;53.034;18.576;2024-02-26T08:01:49;4.78;92.49
70928;SHT31;58587;53.034;18.576;2024-02-26T08:04:14;4.91;91.53
70928;SHT31;58587;53.034;18.576;2024-02-26T08:06:40;5.00;91.63
70928;SHT31;58587;53.034;18.576;2024-02-26T08:09:05;5.11;91.65
70928;SHT31;58587;53.034;18.576;2024-02-26T08:11:30;5.22;91.60
70928;SHT31;58587;53.034;18.576;2024-02-26T08:13:56;5.33;91.45
70928;SHT31;58587;53.034;18.576;2024-02-26T08:16:21;5.44;90.65
70928;SHT31;58587;53.034;18.576;2024-02-26T08:18:46;5.53;90.58
70928;SHT31;58587;53.034;18.576;2024-02-26T08:21:12;5.66;90.69
70928;SHT31;58587;53.034;18.576;2024-02-26T08:23:37;5.77;90.50
70928;SHT31;58587;53.034;18.576;2024-02-26T08:26:02;5.89;90.46
70928;SHT31;58587;53.034;18.576;2024-02-26T08:28:32;6.08;90.54
70928;SHT31;58587;53.034;18.576;2024-02-26T08:30:57;6.14;89.63
70928;SHT31;58587;53.034;18.576;2024-02-26T08:33:22;6.26;89.51
70928;SHT31;58587;53.034;18.576;2024-02-26T08:35:48;6.39;89.53
70928;SHT31;58587;53.034;18.576;2024-02-26T08:38:13;6.52;88.90
70928;SHT31;58587;53.034;18.576;2024-02-26T08:40:39;6.66;88.43
70928;SHT31;58587;53.034;18.576;2024-02-26T08:43:04;6.68;88.28
70928;SHT31;58587;53.034;18.576;2024-02-26T08:45:29;6.80;88.55
70928;SHT31;58587;53.034;18.576;2024-02-26T08:47:54;6.89;88.16
70928;SHT31;58587;53.034;18.576;2024-02-26T08:50:20;6.99;87.84
70928;SHT31;58587;53.034;18.576;2024-02-26T08:52:45;7.06;87.29
70928;SHT31;58587;53.034;18.576;2024-02-26T08:55:13;7.14;86.83
70928;SHT31;58587;53.034;18.576;2024-02-26T08:57:39;7.20;86.68
70928;SHT31;58587;53.034;18.576;2024-02-26T09:00:05;7.31;86.68
70928;SHT31;58587;53.034;18.576;2024-02-26T09:02:31;7.43;86.02
70928;SHT31;58587;53.034;18.576;2024-02-26T09:04:56;7.52;85.13
70928;SHT31;58587;53.034;18.576;2024-02-26T09:07:22;7.62;85.26
70928;SHT31;58587;53.034;18.576;2024-02-26T09:09:47;7.79;85.40
70928;SHT31;58587;53.034;18.576;2024-02-26T09:12:12;7.91;85.82
70928;SHT31;58587;53.034;18.576;2024-02-26T09:14:38;7.99;85.53
70928;SHT31;58587;53.034;18.576;2024-02-26T09:17:03;8.13;83.13
70928;SHT31;58587;53.034;18.576;2024-02-26T09:19:28;8.21;83.90
70928;SHT31;58587;53.034;18.576;2024-02-26T09:21:54;8.33;82.67
70928;SHT31;58587;53.034;18.576;2024-02-26T09:24:23;8.42;83.49
70928;SHT31;58587;53.034;18.576;2024-02-26T09:26:48;8.54;83.29
70928;SHT31;58587;53.034;18.576;2024-02-26T09:29:13;8.68;83.14
70928;SHT31;58587;53.034;18.576;2024-02-26T09:31:39;8.74;82.62
70928;SHT31;58587;53.034;18.576;2024-02-26T09:34:06;8.83;80.23
70928;SHT31;58587;53.034;18.576;2024-02-26T09:36:31;8.92;80.85
70928;SHT31;58587;53.034;18.576;2024-02-26T09:38:57;9.04;80.47
70928;SHT31;58587;53.034;18.576;2024-02-26T09:41:22;9.12;79.18
70928;SHT31;58587;53.034;18.576;2024-02-26T09:43:48;9.28;80.61
70928;SHT31;58587;53.034;18.576;2024-02-26T09:46:14;9.39;79.33
70928;SHT31;58587;53.034;18.576;2024-02-26T09:48:42;9.48;78.97
70928;SHT31;58587;53.034;18.576;2024-02-26T09:51:09;9.58;78.83
70928;SHT31;58587;53.034;18.576;2024-02-26T09:53:35;9.65;77.80
70928;SHT31;58587;53.034;18.576;2024-02-26T09:56:06;9.78;77.46
70928;SHT31;58587;53.034;18.576;2024-02-26T09:58:32;9.79;76.28
70928;SHT31;58587;53.034;18.576;2024-02-26T10:01:00;9.90;77.30
70928;SHT31;58587;53.034;18.576;2024-02-26T10:03:34;10.09;76.86
70928;SHT31;58587;53.034;18.576;2024-02-26T10:06:01;10.14;75.89
70928;SHT31;58587;53.034;18.576;2024-02-26T10:08:29;10.27;76.80
70928;SHT31;58587;53.034;18.576;2024-02-26T10:10:55;10.40;76.24
70928;SHT31;58587;53.034;18.576;2024-02-26T10:13:20;10.54;75.66
70928;SHT31;58587;53.034;18.576;2024-02-26T10:15:45;10.68;74.62
70928;SHT31;58587;53.034;18.576;2024-02-26T10:18:11;10.74;74.56
70928;SHT31;58587;53.034;18.576;2024-02-26T10:20:36;10.88;74.14
70928;SHT31;58587;53.034;18.576;2024-02-26T10:23:03;11.02;73.82
70928;SHT31;58587;53.034;18.576;2024-02-26T10:25:28;11.18;73.88
70928;SHT31;58587;53.034;18.576;2024-02-26T10:27:59;11.32;71.60
70928;SHT31;58587;53.034;18.576;2024-02-26T10:30:27;11.44;72.35
70928;SHT31;58587;53.034;18.576;2024-02-26T10:32:53;11.67;72.76
70928;SHT31;58587;53.034;18.576;2024-02-26T10:35:18;11.87;72.40
70928;SHT31;58587;53.034;18.576;2024-02-26T10:37:46;11.98;71.78
70928;SHT31;58587;53.034;18.576;2024-02-26T10:40:13;12.24;71.32
70928;SHT31;58587;53.034;18.576;2024-02-26T10:42:39;12.41;70.77
70928;SHT31;58587;53.034;18.576;2024-02-26T10:45:06;12.63;70.72
70928;SHT31;58587;53.034;18.576;2024-02-26T10:47:32;12.79;69.62
70928;SHT31;58587;53.034;18.576;2024-02-26T10:49:59;12.89;67.11
70928;SHT31;58587;53.034;18.576;2024-02-26T10:52:27;13.03;67.65
70928;SHT31;58587;53.034;18.576;2024-02-26T10:54:54;13.20;68.08
70928;SHT31;58587;53.034;18.576;2024-02-26T10:57:22;13.17;66.26
70928;SHT31;58587;53.034;18.576;2024-02-26T10:59:50;13.39;67.50
70928;SHT31;58587;53.034;18.576;2024-02-26T11:02:17;13.56;67.55
70928;SHT31;58587;53.034;18.576;2024-02-26T11:04:43;13.57;66.35
70928;SHT31;58587;53.034;18.576;2024-02-26T11:07:09;13.58;64.30
70928;SHT31;58587;53.034;18.576;2024-02-26T11:09:35;13.68;65.55
70928;SHT31;58587;53.034;18.576;2024-02-26T11:12:02;13.94;66.48
70928;SHT31;58587;53.034;18.576;2024-02-26T11:14:29;13.85;63.19
70928;SHT31;58587;53.034;18.576;2024-02-26T11:16:55;14.00;65.36
70928;SHT31;58587;53.034;18.576;2024-02-26T11:19:21;14.22;65.04
70928;SHT31;58587;53.034;18.576;2024-02-26T11:21:48;14.17;62.49
70928;SHT31;58587;53.034;18.576;2024-02-26T11:24:15;14.22;63.00
70928;SHT31;58587;53.034;18.576;2024-02-26T11:26:48;14.43;62.35
70928;SHT31;58587;53.034;18.576;2024-02-26T11:29:18;14.56;61.63
70928;SHT31;58587;53.034;18.576;2024-02-26T11:31:44;14.58;62.53
70928;SHT31;58587;53.034;18.576;2024-02-26T11:34:10;14.75;63.70
70928;SHT31;58587;53.034;18.576;2024-02-26T11:36:36;15.03;62.99
70928;SHT31;58587;53.034;18.576;2024-02-26T11:39:04;15.24;61.95
70928;SHT31;58587;53.034;18.576;2024-02-26T11:41:29;15.28;61.64
70928;SHT31;58587;53.034;18.576;2024-02-26T11:44:02;15.14;57.80
70928;SHT31;58587;53.034;18.576;2024-02-26T11:46:47;15.30;60.61
70928;SHT31;58587;53.034;18.576;2024-02-26T11:49:30;15.64;59.27
70928;SHT31;58587;53.034;18.576;2024-02-26T11:51:57;15.78;60.07
70928;SHT31;58587;53.034;18.576;2024-02-26T11:54:48;16.43;60.41
70928;SHT31;58587;53.034;18.576;2024-02-26T11:57:27;16.26;55.85
70928;SHT31;58587;53.034;18.576;2024-02-26T11:59:54;16.56;57.74
70928;SHT31;58587;53.034;18.576;2024-02-26T12:02:45;17.14;55.87
70928;SHT31;58587;53.034;18.576;2024-02-26T12:05:19;17.12;56.18
70928;SHT31;58587;53.034;18.576;2024-02-26T12:07:52;17.62;55.78
70928;SHT31;58587;53.034;18.576;2024-02-26T12:13:14;18.29;51.90
70928;SHT31;58587;53.034;18.576;2024-02-26T12:15:41;18.78;51.63
70928;SHT31;58587;53.034;18.576;2024-02-26T12:18:07;19.53;50.81
70928;SHT31;58587;53.034;18.576;2024-02-26T12:20:33;19.76;49.33
70928;SHT31;58587;53.034;18.576;2024-02-26T12:23:01;20.36;49.45
70928;SHT31;58587;53.034;18.576;2024-02-26T12:25:29;20.71;47.43
70928;SHT31;58587;53.034;18.576;2024-02-26T12:27:55;21.12;45.85
70928;SHT31;58587;53.034;18.576;2024-02-26T12:30:21;21.42;45.47
70928;SHT31;58587;53.034;18.576;2024-02-26T12:32:50;21.57;44.67
70928;SHT31;58587;53.034;18.576;2024-02-26T12:35:16;21.98;43.95
70928;SHT31;58587;53.034;18.576;2024-02-26T12:37:45;21.93;43.63
70928;SHT31;58587;53.034;18.576;2024-02-26T12:40:11;22.43;42.50
70928;SHT31;58587;53.034;18.576;2024-02-26T12:42:38;23.00;41.72
70928;SHT31;58587;53.034;18.576;2024-02-26T12:45:08;23.12;40.05
70928;SHT31;58587;53.034;18.576;2024-02-26T12:50:03;22.25;42.85
70928;SHT31;58587;53.034;18.576;2024-02-26T12:52:32;21.87;42.33
70928;SHT31;58587;53.034;18.576;2024-02-26T12:54:58;21.80;43.61
70928;SHT31;58587;53.034;18.576;2024-02-26T12:57:24;21.71;43.55
70928;SHT31;58587;53.034;18.576;2024-02-26T12:59:50;21.40;43.24
70928;SHT31;58587;53.034;18.576;2024-02-26T13:02:15;21.33;43.71
70928;SHT31;58587;53.034;18.576;2024-02-26T13:04:40;20.99;43.92
70928;SHT31;58587;53.034;18.576;2024-02-26T13:07:06;21.06;42.75
70928;SHT31;58587;53.034;18.576;2024-02-26T13:09:33;20.99;43.49
70928;SHT31;58587;53.034;18.576;2024-02-26T13:12:04;21.13;42.12
70928;SHT31;58587;53.034;18.576;2024-02-26T13:14:29;21.39;42.95
70928;SHT31;58587;53.034;18.576;2024-02-26T13:16:57;21.90;40.93
70928;SHT31;58587;53.034;18.576;2024-02-26T13:19:23;22.04;40.38
70928;SHT31;58587;53.034;18.576;2024-02-26T13:21:49;22.31;40.13
70928;SHT31;58587;53.034;18.576;2024-02-26T13:24:14;22.17;41.17
70928;SHT31;58587;53.034;18.576;2024-02-26T13:26:40;22.20;40.23
70928;SHT31;58587;53.034;18.576;2024-02-26T13:29:05;21.94;40.88
70928;SHT31;58587;53.034;18.576;2024-02-26T13:31:31;21.43;41.73
70928;SHT31;58587;53.034;18.576;2024-02-26T13:33:57;20.87;41.85
70928;SHT31;58587;53.034;18.576;2024-02-26T13:36:23;21.08;41.19
70928;SHT31;58587;53.034;18.576;2024-02-26T13:38:52;21.09;42.19
70928;SHT31;58587;53.034;18.576;2024-02-26T13:41:18;21.09;42.13
70928;SHT31;58587;53.034;18.576;2024-02-26T13:43:43;21.46;41.56
70928;SHT31;58587;53.034;18.576;2024-02-26T13:46:10;21.62;41.35
70928;SHT31;58587;53.034;18.576;2024-02-26T13:48:36;22.00;42.07
70928;SHT31;58587;53.034;18.576;2024-02-26T13:51:01;21.73;42.65
70928;SHT31;58587;53.034;18.576;2024-02-26T13:53:27;21.69;43.66
70928;SHT31;58587;53.034;18.576;2024-02-26T13:55:52;21.97;42.55
70928;SHT31;58587;53.034;18.576;2024-02-26T13:58:17;21.15;44.11
70928;SHT31;58587;53.034;18.576;2024-02-26T14:00:48;20.82;44.92
70928;SHT31;58587;53.034;18.576;2024-02-26T14:03:13;20.23;46.50
70928;SHT31;58587;53.034;18.576;2024-02-26T14:05:38;20.17;45.71
70928;SHT31;58587;53.034;18.576;2024-02-26T14:08:05;19.76;46.50
70928;SHT31;58587;53.034;18.576;2024-02-26T14:10:30;19.55;47.22
70928;SHT31;58587;53.034;18.576;2024-02-26T14:12:57;18.91;47.95
70928;SHT31;58587;53.034;18.576;2024-02-26T14:15:22;18.71;49.24
70928;SHT31;58587;53.034;18.576;2024-02-26T14:17:49;18.80;48.35
70928;SHT31;58587;53.034;18.576;2024-02-26T14:20:20;18.58;48.97
70928;SHT31;58587;53.034;18.576;2024-02-26T14:22:45;17.99;50.05
70928;SHT31;58587;53.034;18.576;2024-02-26T14:25:11;17.92;50.31
70928;SHT31;58587;53.034;18.576;2024-02-26T14:27:36;17.56;51.73
70928;SHT31;58587;53.034;18.576;2024-02-26T14:30:02;17.28;52.05
70928;SHT31;58587;53.034;18.576;2024-02-26T14:32:27;16.99;53.62
70928;SHT31;58587;53.034;18.576;2024-02-26T14:34:53;16.91;53.21
70928;SHT31;58587;53.034;18.576;2024-02-26T14:37:18;16.73;52.29
70928;SHT31;58587;53.034;18.576;2024-02-26T14:39:44;16.56;53.43
70928;SHT31;58587;53.034;18.576;2024-02-26T14:42:09;16.33;53.92
70928;SHT31;58587;53.034;18.576;2024-02-26T14:44:34;16.22;53.59
70928;SHT31;58587;53.034;18.576;2024-02-26T14:47:00;16.06;54.25
70928;SHT31;58587;53.034;18.576;2024-02-26T14:49:25;16.05;54.11
70928;SHT31;58587;53.034;18.576;2024-02-26T14:51:50;16.04;53.48
70928;SHT31;58587;53.034;18.576;2024-02-26T14:54:16;15.91;53.82
70928;SHT31;58587;53.034;18.576;2024-02-26T14:56:41;15.61;55.48
70928;SHT31;58587;53.034;18.576;2024-02-26T14:59:06;15.22;56.63
70928;SHT31;58587;53.034;18.576;2024-02-26T15:01:32;15.06;57.32
70928;SHT31;58587;53.034;18.576;2024-02-26T15:03:58;15.06;57.29
70928;SHT31;58587;53.034;18.576;2024-02-26T15:06:24;14.84;58.56
70928;SHT31;58587;53.034;18.576;2024-02-26T15:08:49;14.66;59.22
70928;SHT31;58587;53.034;18.576;2024-02-26T15:11:15;14.60;59.57
70928;SHT31;58587;53.034;18.576;2024-02-26T15:13:41;14.41;60.24
70928;SHT31;58587;53.034;18.576;2024-02-26T15:16:06;14.31;59.90
70928;SHT31;58587;53.034;18.576;2024-02-26T15:18:32;14.14;60.82
70928;SHT31;58587;53.034;18.576;2024-02-26T15:20:57;14.01;62.87
70928;SHT31;58587;53.034;18.576;2024-02-26T15:23:23;13.79;62.85